LIMZ/CUF METAR and TAF weather

Enter ICAO airport designator
Station Type Date Time Source
LIMZ METAR 2020/09/22 19:50 UTC NOAA

LIMZ 221950Z AUTO 18002KT 9999 SCT085/// BKN096/// BKN140/// 15/15 Q1013


Station Type Date Time Source
LIMZ Decoded METAR 2020/09/22 19:50 UTC NOAA

Cuneo / Levaldigi, Italy (LIMZ) 44-32-47N 007-37-20E
Sep 22, 2020 - 03:50 PM EDT / 2020.09.22 1950 UTC
Wind: from the S (180 degrees) at 2 MPH (2 KT):0
Visibility: greater than 7 mile(s):0
Sky conditions: mostly cloudy
Temperature: 59 F (15 C)
Dew Point: 59 F (15 C)
Relative Humidity: 100%
Pressure (altimeter): 29.91 in. Hg (1013 hPa)
ob: LIMZ 221950Z AUTO 18002KT 9999 SCT085/// BKN096/// BKN140/// 15/15 Q1013
cycle: 20

Station Type Date Time Source
LIMZ TAF 2020/09/22 18:21 UTC NOAA

TAF LIMZ 221700Z 2218/2318 VRB05KT 9999 SCT020 BKN050
TEMPO 2218/2302 4000 TSRA
TEMPO 2302/2307 3000 BR

Example: see airport list